createdAt,value
2022-08-04T00:00:28.037Z,100.00
2022-08-04T00:03:26.630Z,100.00
2022-08-04T00:06:37.330Z,100.00
2022-08-04T00:09:57.629Z,100.00
2022-08-04T00:12:42.010Z,100.00
2022-08-04T00:15:26.631Z,100.00
2022-08-04T00:18:15.399Z,100.00
2022-08-04T00:20:52.367Z,100.00
2022-08-04T00:24:12.131Z,100.00
2022-08-04T00:26:51.773Z,100.00
2022-08-04T00:29:35.084Z,100.00
2022-08-04T00:32:34.574Z,100.00
2022-08-04T00:35:15.087Z,100.00
2022-08-04T00:37:50.458Z,100.00
2022-08-04T00:40:48.988Z,100.00
2022-08-04T00:44:03.625Z,100.00
2022-08-04T00:47:01.349Z,100.00
2022-08-04T00:50:05.820Z,100.00
2022-08-04T00:53:14.404Z,100.00
2022-08-04T00:56:18.281Z,100.00
2022-08-04T00:59:06.987Z,100.00
2022-08-04T01:02:04.487Z,100.00
2022-08-04T01:04:54.753Z,100.00
2022-08-04T01:08:01.391Z,100.00
2022-08-04T01:11:15.030Z,100.00
2022-08-04T01:14:02.617Z,100.00
2022-08-04T01:17:02.072Z,100.00
2022-08-04T01:20:13.614Z,100.00
2022-08-04T01:22:49.422Z,100.00
2022-08-04T01:25:58.313Z,100.00
2022-08-04T01:28:36.045Z,100.00
2022-08-04T01:31:35.221Z,100.00
2022-08-04T01:34:14.707Z,100.00
2022-08-04T01:37:30.423Z,100.00
2022-08-04T01:40:10.568Z,100.00
2022-08-04T01:42:50.412Z,100.00
2022-08-04T01:45:28.399Z,100.00
2022-08-04T01:48:10.956Z,100.00
2022-08-04T01:50:45.531Z,100.00
2022-08-04T01:53:39.121Z,100.00
2022-08-04T01:56:25.778Z,100.00
2022-08-04T01:59:04.091Z,100.00
2022-08-04T02:01:39.213Z,100.00
2022-08-04T02:04:25.241Z,100.00
2022-08-04T02:07:26.099Z,100.00
2022-08-04T02:10:15.198Z,100.00
2022-08-04T02:13:10.892Z,100.00
2022-08-04T02:16:05.133Z,100.00
2022-08-04T02:19:18.442Z,100.00
2022-08-04T02:21:59.929Z,100.00
2022-08-04T02:24:48.732Z,100.00
2022-08-04T02:28:00.003Z,100.00
2022-08-04T02:30:39.244Z,100.00
2022-08-04T02:33:28.760Z,100.00
2022-08-04T02:36:09.365Z,100.00
2022-08-04T02:39:01.645Z,100.00
2022-08-04T02:41:43.718Z,100.00
2022-08-04T02:44:23.277Z,100.00
2022-08-04T02:47:09.369Z,100.00
2022-08-04T02:49:49.321Z,100.00
2022-08-04T02:52:38.441Z,100.00
2022-08-04T02:55:32.123Z,100.00
2022-08-04T02:58:21.407Z,100.00
2022-08-04T03:00:59.839Z,100.00
2022-08-04T03:04:04.080Z,100.00
2022-08-04T03:07:14.262Z,100.00
2022-08-04T03:10:48.362Z,100.00
2022-08-04T03:13:53.575Z,100.00
2022-08-04T03:17:03.080Z,100.00
2022-08-04T03:20:01.069Z,100.00
2022-08-04T03:23:14.666Z,100.00
2022-08-04T03:26:15.345Z,100.00
2022-08-04T03:29:36.681Z,100.00
2022-08-04T03:32:44.786Z,100.00
2022-08-04T03:35:36.389Z,100.00
2022-08-04T03:38:27.076Z,100.00
2022-08-04T03:41:55.069Z,100.00
2022-08-04T03:44:57.581Z,100.00
2022-08-04T03:48:23.795Z,100.00
2022-08-04T03:51:35.503Z,100.00
2022-08-04T03:54:55.103Z,100.00
2022-08-04T03:57:43.814Z,100.00
2022-08-04T04:00:53.438Z,100.00
2022-08-04T04:03:44.863Z,100.00
2022-08-04T04:07:00.914Z,100.00
2022-08-04T04:10:28.759Z,100.00
2022-08-04T04:13:19.126Z,100.00
2022-08-04T04:16:33.237Z,100.00
2022-08-04T04:19:35.781Z,100.00
2022-08-04T04:22:38.289Z,100.00
2022-08-04T04:25:25.034Z,100.00
2022-08-04T04:28:48.295Z,100.00
2022-08-04T04:32:15.189Z,100.00
2022-08-04T04:35:12.369Z,100.00
2022-08-04T04:38:17.409Z,100.00
2022-08-04T04:41:28.308Z,100.00
2022-08-04T04:44:30.436Z,100.00
2022-08-04T04:48:07.281Z,100.00
2022-08-04T04:50:56.609Z,100.00
2022-08-04T04:54:05.026Z,100.00
2022-08-04T04:56:43.629Z,100.00
2022-08-04T04:59:36.391Z,100.00
2022-08-04T05:02:42.977Z,100.00
2022-08-04T05:05:26.754Z,100.00
2022-08-04T05:08:44.231Z,100.00
2022-08-04T05:11:39.608Z,100.00
2022-08-04T05:14:38.861Z,100.00
2022-08-04T05:17:36.468Z,100.00
2022-08-04T05:20:40.526Z,100.00
2022-08-04T05:23:24.392Z,97.32
2022-08-04T05:26:11.781Z,95.82
2022-08-04T05:28:52.503Z,92.55
2022-08-04T05:31:40.689Z,90.07
2022-08-04T05:34:26.075Z,88.09
2022-08-04T05:37:20.761Z,86.24
2022-08-04T05:40:03.377Z,82.77
2022-08-04T05:42:42.827Z,76.28
2022-08-04T05:45:24.257Z,75.59
2022-08-04T05:48:01.392Z,75.22
2022-08-04T05:50:43.017Z,72.63
2022-08-04T05:53:24.639Z,73.36
2022-08-04T05:56:05.677Z,70.53
2022-08-04T05:58:50.510Z,68.18
2022-08-04T06:01:30.423Z,66.16
2022-08-04T06:04:13.429Z,67.24
2022-08-04T06:07:04.495Z,64.52
2022-08-04T06:09:35.604Z,63.04
2022-08-04T06:12:19.488Z,62.61
2022-08-04T06:14:59.474Z,59.43
2022-08-04T06:18:35.647Z,58.18
2022-08-04T06:21:16.417Z,57.43
2022-08-04T06:24:12.151Z,56.21
2022-08-04T06:26:50.653Z,55.97
2022-08-04T06:29:41.308Z,53.53
2022-08-04T06:32:47.815Z,54.50
2022-08-04T06:35:32.985Z,54.29
2022-08-04T06:38:18.238Z,53.81
2022-08-04T06:40:58.351Z,50.87
2022-08-04T06:43:43.054Z,52.28
2022-08-04T06:46:22.187Z,50.41
2022-08-04T06:49:06.653Z,44.10
2022-08-04T06:51:49.637Z,44.36
2022-08-04T06:54:27.577Z,43.12
2022-08-04T06:57:08.500Z,42.47
2022-08-04T06:59:49.381Z,45.90
2022-08-04T07:02:30.137Z,44.93
2022-08-04T07:05:21.401Z,42.60
2022-08-04T07:07:58.452Z,39.28
2022-08-04T07:10:40.113Z,41.05
2022-08-04T07:13:27.070Z,40.66
2022-08-04T07:16:04.407Z,39.39
2022-08-04T07:18:39.679Z,37.50
2022-08-04T07:21:27.391Z,36.84
2022-08-04T07:24:13.029Z,35.99
2022-08-04T07:26:52.418Z,36.61
2022-08-04T07:29:29.555Z,36.75
2022-08-04T07:32:14.411Z,35.33
2022-08-04T07:34:52.256Z,35.98
2022-08-04T07:37:38.943Z,34.70
2022-08-04T07:40:31.826Z,37.21
2022-08-04T07:43:10.855Z,33.02
2022-08-04T07:45:47.364Z,33.10
2022-08-04T07:48:31.419Z,33.07
2022-08-04T07:51:07.447Z,32.57
2022-08-04T07:53:55.011Z,33.53
2022-08-04T07:56:31.301Z,32.67
2022-08-04T07:59:13.243Z,32.62
2022-08-04T08:01:45.143Z,33.92
2022-08-04T08:04:18.755Z,33.09
2022-08-04T08:06:49.408Z,33.07
2022-08-04T08:09:25.321Z,32.93
2022-08-04T08:12:38.286Z,32.96
2022-08-04T08:14:56.321Z,32.76
2022-08-04T08:17:32.557Z,33.28
2022-08-04T08:20:29.921Z,32.11
2022-08-04T08:23:02.563Z,31.40
2022-08-04T08:25:41.213Z,32.25
2022-08-04T08:28:17.592Z,31.91
2022-08-04T08:30:59.452Z,31.57
2022-08-04T08:33:39.010Z,30.40
2022-08-04T08:37:03.834Z,32.01
2022-08-04T08:40:05.050Z,30.94
2022-08-04T08:44:03.804Z,32.46
2022-08-04T08:46:48.920Z,31.37
2022-08-04T08:50:03.061Z,30.18
2022-08-04T08:53:02.760Z,31.36
2022-08-04T08:56:18.144Z,30.70
2022-08-04T08:59:38.269Z,30.59
2022-08-04T09:02:49.759Z,33.47
2022-08-04T09:05:56.947Z,31.33
2022-08-04T09:08:55.679Z,30.10
2022-08-04T09:11:33.104Z,30.17
2022-08-04T09:14:48.614Z,30.36
2022-08-04T09:17:52.422Z,29.38
2022-08-04T09:21:17.235Z,30.52
2022-08-04T09:24:03.439Z,29.95
2022-08-04T09:27:27.760Z,30.34
2022-08-04T09:30:18.855Z,30.64
2022-08-04T09:33:45.405Z,28.95
2022-08-04T09:36:31.867Z,30.25
2022-08-04T09:39:36.205Z,30.47
2022-08-04T09:42:30.273Z,29.90
2022-08-04T09:45:39.177Z,29.88
2022-08-04T09:48:45.235Z,29.01
2022-08-04T09:51:58.768Z,28.77
2022-08-04T09:54:44.487Z,30.81
2022-08-04T09:57:41.382Z,29.71
2022-08-04T10:00:23.719Z,29.69
2022-08-04T10:03:23.509Z,29.09
2022-08-04T10:06:36.077Z,28.37
2022-08-04T10:09:51.035Z,28.63
2022-08-04T10:12:51.396Z,28.30
2022-08-04T10:15:41.692Z,27.90
2022-08-04T10:18:14.525Z,28.94
2022-08-04T10:21:19.616Z,28.04
2022-08-04T10:24:30.293Z,27.05
2022-08-04T10:27:31.423Z,28.34
2022-08-04T10:30:16.949Z,29.45
2022-08-04T10:33:10.926Z,28.48
2022-08-04T10:36:31.272Z,27.49
2022-08-04T10:39:42.831Z,27.50
2022-08-04T10:42:30.394Z,27.18
2022-08-04T10:45:18.399Z,27.60
2022-08-04T10:48:14.087Z,30.72
2022-08-04T10:50:58.469Z,27.40
2022-08-04T10:53:38.452Z,27.93
2022-08-04T10:56:22.589Z,27.14
2022-08-04T10:59:00.810Z,28.62
2022-08-04T11:01:50.543Z,27.23
2022-08-04T11:05:16.424Z,26.93
2022-08-04T11:07:52.502Z,26.85
2022-08-04T11:10:33.442Z,28.40
2022-08-04T11:13:21.869Z,27.24
2022-08-04T11:16:15.393Z,27.14
2022-08-04T11:19:23.491Z,27.32
2022-08-04T11:22:48.658Z,27.19
2022-08-04T11:25:35.991Z,26.24
2022-08-04T11:28:23.454Z,25.56
2022-08-04T11:31:18.499Z,26.95
2022-08-04T11:33:54.372Z,25.60
2022-08-04T11:36:33.814Z,24.87
2022-08-04T11:39:19.515Z,26.42
2022-08-04T11:42:07.796Z,26.43
2022-08-04T11:45:01.957Z,27.64
2022-08-04T11:47:41.691Z,25.29
2022-08-04T11:50:40.987Z,25.79
2022-08-04T11:53:19.507Z,26.40
2022-08-04T11:56:07.135Z,25.79
2022-08-04T11:58:50.121Z,25.95
2022-08-04T12:01:32.471Z,26.55
2022-08-04T12:04:50.398Z,25.41
2022-08-04T12:07:54.611Z,26.32
2022-08-04T12:10:48.653Z,28.38
2022-08-04T12:13:49.410Z,27.89
2022-08-04T12:16:30.370Z,30.09
2022-08-04T12:19:17.253Z,30.22
2022-08-04T12:21:57.412Z,30.39
2022-08-04T12:24:38.659Z,30.15
2022-08-04T12:27:19.527Z,31.86
2022-08-04T12:30:59.445Z,33.27
2022-08-04T12:33:10.197Z,31.84
2022-08-04T12:36:11.853Z,33.79
2022-08-04T12:39:04.274Z,31.30
2022-08-04T12:41:45.419Z,28.18
2022-08-04T12:44:33.347Z,27.64
2022-08-04T12:47:28.274Z,28.07
2022-08-04T12:50:19.777Z,28.33
2022-08-04T12:53:02.746Z,26.28
2022-08-04T12:56:01.729Z,25.90
2022-08-04T12:58:47.303Z,27.33
2022-08-04T13:02:07.221Z,26.27
2022-08-04T13:04:29.297Z,25.26
2022-08-04T13:07:22.244Z,25.47
2022-08-04T13:10:18.309Z,25.39
2022-08-04T13:13:06.990Z,25.37
2022-08-04T13:15:56.164Z,24.94
2022-08-04T13:18:30.459Z,24.95
2022-08-04T13:21:49.956Z,23.03
2022-08-04T13:24:31.126Z,23.06
2022-08-04T13:27:10.871Z,24.84
2022-08-04T13:30:00.714Z,25.15
2022-08-04T13:32:41.091Z,23.53
2022-08-04T13:35:13.335Z,22.04
2022-08-04T13:38:04.159Z,22.98
2022-08-04T13:40:40.100Z,23.42
2022-08-04T13:43:51.595Z,23.16
2022-08-04T13:46:33.858Z,24.15
2022-08-04T13:49:48.446Z,24.16
2022-08-04T13:52:15.454Z,23.00
2022-08-04T13:54:53.539Z,22.59
2022-08-04T13:57:47.666Z,23.02
2022-08-04T14:00:30.253Z,24.51
2022-08-04T14:03:23.722Z,24.31
2022-08-04T14:06:18.835Z,23.53
2022-08-04T14:09:02.059Z,22.16
2022-08-04T14:12:09.138Z,24.51
2022-08-04T14:14:39.429Z,22.22
2022-08-04T14:17:20.647Z,23.33
2022-08-04T14:20:01.913Z,22.31
2022-08-04T14:22:34.809Z,22.18
2022-08-04T14:25:16.718Z,22.48
2022-08-04T14:28:05.893Z,23.58
2022-08-04T14:30:44.034Z,23.31
2022-08-04T14:34:03.094Z,21.62
2022-08-04T14:36:04.627Z,21.35
2022-08-04T14:38:53.945Z,20.74
2022-08-04T14:41:33.451Z,20.37
2022-08-04T14:44:11.993Z,21.34
2022-08-04T14:47:03.465Z,21.45
2022-08-04T14:49:35.811Z,19.74
2022-08-04T14:52:13.490Z,19.63
2022-08-04T14:54:52.583Z,20.77
2022-08-04T14:57:33.237Z,19.72
2022-08-04T15:00:32.450Z,20.97
2022-08-04T15:03:08.806Z,22.12
2022-08-04T15:06:05.188Z,21.82
2022-08-04T15:08:38.377Z,20.69
2022-08-04T15:11:13.692Z,21.03
2022-08-04T15:14:08.697Z,21.37
2022-08-04T15:17:12.135Z,23.22
2022-08-04T15:20:11.554Z,22.44
2022-08-04T15:22:54.038Z,20.97
2022-08-04T15:25:39.952Z,20.48
2022-08-04T15:28:26.600Z,21.45
2022-08-04T15:31:10.313Z,20.48
2022-08-04T15:34:15.428Z,21.23
2022-08-04T15:36:58.221Z,21.35
2022-08-04T15:39:52.611Z,20.77
2022-08-04T15:42:59.535Z,23.75
2022-08-04T15:46:37.102Z,22.12
2022-08-04T15:48:56.099Z,22.70
2022-08-04T15:51:42.072Z,23.18
2022-08-04T15:54:27.701Z,21.34
2022-08-04T15:57:09.475Z,22.27
2022-08-04T16:00:22.281Z,22.51
2022-08-04T16:02:56.762Z,21.03
2022-08-04T16:05:43.432Z,19.62
2022-08-04T16:08:26.456Z,20.64
2022-08-04T16:11:08.475Z,19.34
2022-08-04T16:14:07.739Z,20.13
2022-08-04T16:16:45.214Z,20.05
2022-08-04T16:19:35.089Z,17.20
2022-08-04T16:22:38.532Z,17.85
2022-08-04T16:25:12.456Z,16.87
2022-08-04T16:27:44.414Z,19.83
2022-08-04T16:30:18.340Z,18.57
2022-08-04T16:32:51.430Z,20.00
2022-08-04T16:35:27.504Z,17.88
2022-08-04T16:38:15.680Z,17.81
2022-08-04T16:41:02.299Z,17.22
2022-08-04T16:43:51.402Z,16.77
2022-08-04T16:47:08.623Z,17.38
2022-08-04T16:49:36.558Z,20.71
2022-08-04T16:52:33.852Z,16.69
2022-08-04T16:55:09.572Z,17.11
2022-08-04T16:57:45.395Z,15.87
2022-08-04T17:00:15.031Z,18.14
2022-08-04T17:02:53.635Z,17.05
2022-08-04T17:05:39.029Z,17.88
2022-08-04T17:08:29.737Z,18.84
2022-08-04T17:11:03.246Z,18.73
2022-08-04T17:14:02.201Z,18.66
2022-08-04T17:16:58.437Z,20.12
2022-08-04T17:19:36.596Z,20.63
2022-08-04T17:22:10.675Z,20.93
2022-08-04T17:24:48.235Z,20.72
2022-08-04T17:28:19.054Z,22.25
2022-08-04T17:30:35.656Z,23.55
2022-08-04T17:33:06.459Z,24.51
2022-08-04T17:35:54.761Z,25.09
2022-08-04T17:38:39.507Z,26.72
2022-08-04T17:41:19.083Z,28.62
2022-08-04T17:44:12.079Z,29.98
2022-08-04T17:46:48.132Z,30.82
2022-08-04T17:49:24.348Z,30.63
2022-08-04T17:52:02.626Z,31.63
2022-08-04T17:54:44.321Z,32.18
2022-08-04T17:57:21.556Z,33.88
2022-08-04T18:00:01.307Z,34.53
2022-08-04T18:02:54.505Z,35.96
2022-08-04T18:06:01.812Z,36.38
2022-08-04T18:08:39.661Z,36.30
2022-08-04T18:11:29.663Z,37.42
2022-08-04T18:14:25.995Z,37.28
2022-08-04T18:17:04.237Z,38.22
2022-08-04T18:19:55.585Z,38.10
2022-08-04T18:22:34.233Z,38.39
2022-08-04T18:25:18.530Z,38.43
2022-08-04T18:27:58.586Z,39.30
2022-08-04T18:30:55.621Z,40.41
2022-08-04T18:33:39.865Z,40.08
2022-08-04T18:36:32.978Z,39.34
2022-08-04T18:39:16.216Z,39.28
2022-08-04T18:42:02.466Z,40.12
2022-08-04T18:44:53.229Z,41.64
2022-08-04T18:47:58.669Z,41.75
2022-08-04T18:51:09.512Z,41.16
2022-08-04T18:53:35.736Z,40.66
2022-08-04T18:56:19.912Z,41.51
2022-08-04T18:59:10.166Z,40.81
2022-08-04T19:02:12.279Z,41.45
2022-08-04T19:04:53.539Z,41.72
2022-08-04T19:08:02.634Z,42.24
2022-08-04T19:10:34.865Z,43.75
2022-08-04T19:13:24.837Z,44.31
2022-08-04T19:15:59.117Z,45.48
2022-08-04T19:18:48.576Z,46.69
2022-08-04T19:21:58.654Z,48.32
2022-08-04T19:24:32.094Z,50.97
2022-08-04T19:27:07.417Z,53.08
2022-08-04T19:29:50.384Z,53.93
2022-08-04T19:32:26.498Z,54.34
2022-08-04T19:35:02.554Z,55.20
2022-08-04T19:37:58.203Z,55.56
2022-08-04T19:40:36.997Z,56.50
2022-08-04T19:43:16.002Z,56.88
2022-08-04T19:45:56.717Z,56.28
2022-08-04T19:48:35.974Z,55.36
2022-08-04T19:51:15.352Z,53.70
2022-08-04T19:54:08.073Z,53.15
2022-08-04T19:57:03.970Z,53.41
2022-08-04T19:59:36.618Z,53.69
2022-08-04T20:02:20.121Z,54.24
2022-08-04T20:05:04.735Z,55.15
2022-08-04T20:07:52.405Z,55.61
2022-08-04T20:10:23.718Z,56.45
2022-08-04T20:13:10.623Z,58.03
2022-08-04T20:15:57.415Z,59.33
2022-08-04T20:18:55.596Z,60.73
2022-08-04T20:21:54.067Z,61.51
2022-08-04T20:28:00.501Z,61.59
2022-08-04T20:30:34.465Z,62.84
2022-08-04T20:33:23.446Z,62.79
2022-08-04T20:36:11.654Z,63.60
2022-08-04T20:38:52.002Z,64.18
2022-08-04T20:41:36.706Z,62.20
2022-08-04T20:44:18.730Z,63.95
2022-08-04T20:46:55.429Z,64.81
2022-08-04T20:49:36.486Z,64.29
2022-08-04T20:52:20.577Z,65.06
2022-08-04T20:55:00.003Z,65.44
2022-08-04T20:57:47.922Z,64.33
2022-08-04T21:00:30.316Z,63.81
2022-08-04T21:03:11.473Z,62.83
2022-08-04T21:05:57.652Z,62.20
2022-08-04T21:08:30.834Z,62.10
2022-08-04T21:11:17.770Z,61.67
2022-08-04T21:13:52.792Z,61.44
2022-08-04T21:16:55.744Z,60.81
2022-08-04T21:19:32.433Z,60.73
2022-08-04T21:22:14.266Z,60.78
2022-08-04T21:25:06.446Z,61.23
2022-08-04T21:27:39.450Z,61.69
2022-08-04T21:30:23.837Z,62.36
2022-08-04T21:33:06.495Z,62.70
2022-08-04T21:35:54.339Z,63.30
2022-08-04T21:38:28.380Z,63.01
2022-08-04T21:41:03.668Z,63.13
2022-08-04T21:43:42.643Z,62.82
2022-08-04T21:46:24.154Z,62.24
2022-08-04T21:49:03.256Z,62.81
2022-08-04T21:52:00.282Z,62.78
2022-08-04T21:54:39.508Z,62.51
2022-08-04T21:57:17.077Z,59.08
2022-08-04T22:00:00.963Z,57.52
2022-08-04T22:02:43.242Z,57.66
2022-08-04T22:05:32.674Z,56.34
2022-08-04T22:08:19.547Z,55.40
2022-08-04T22:11:01.130Z,55.14
2022-08-04T22:13:52.406Z,55.10
2022-08-04T22:16:30.020Z,54.56
2022-08-04T22:19:13.655Z,54.58
2022-08-04T22:21:56.616Z,54.62
2022-08-04T22:24:39.539Z,54.17
2022-08-04T22:27:36.157Z,54.71
2022-08-04T22:30:18.495Z,54.84
2022-08-04T22:32:56.530Z,54.49
2022-08-04T22:35:43.755Z,55.17
2022-08-04T22:38:27.893Z,55.75
2022-08-04T22:41:17.275Z,57.76
2022-08-04T22:44:00.993Z,58.67
2022-08-04T22:46:45.463Z,61.07
2022-08-04T22:49:31.932Z,62.27
2022-08-04T22:52:26.208Z,61.58
2022-08-04T22:55:11.456Z,64.23
2022-08-04T22:58:04.992Z,63.91
2022-08-04T23:00:53.055Z,63.78
2022-08-04T23:03:37.269Z,64.89
2022-08-04T23:06:24.430Z,65.46
2022-08-04T23:09:06.404Z,65.76
2022-08-04T23:12:08.602Z,66.62
2022-08-04T23:14:56.893Z,68.74
2022-08-04T23:17:43.841Z,67.82
2022-08-04T23:20:32.930Z,68.47
2022-08-04T23:23:14.857Z,70.14
2022-08-04T23:26:11.044Z,69.96
2022-08-04T23:28:56.872Z,70.74
2022-08-04T23:31:41.009Z,70.33
2022-08-04T23:34:29.134Z,71.75
2022-08-04T23:37:08.655Z,72.25
2022-08-04T23:40:15.438Z,74.36
2022-08-04T23:42:45.214Z,74.00
2022-08-04T23:45:24.532Z,74.87
2022-08-04T23:48:20.887Z,76.70
2022-08-04T23:51:04.559Z,77.92
2022-08-04T23:54:03.674Z,79.16
2022-08-04T23:56:40.429Z,79.92
2022-08-04T23:59:49.159Z,79.57
